Time;durP1;ratioP1;P1;durP2;ratioP2;P2;SDS_P1;SDS_P2;PMS_P1;PMS_P2;Temp;Humidity;BMP_temperature;BMP_pressure;BME280_temperature;BME280_humidity;BME280_pressure;Samples;Min_cycle;Max_cycle;Signal;HPM_P1;HPM_P2
2023/08/09 00:00:20;;;;;;;;;1.50;1.50;;;;;23.23;43.30;101078.63;4976130;28;45372;-44
2023/08/09 00:02:46;;;;;;;;;2.00;2.00;;;;;23.23;43.41;101078.63;4976264;28;45352;-45
2023/08/09 00:05:11;;;;;;;;;1.00;1.00;;;;;23.23;43.36;101075.97;4977306;28;49162;-44
2023/08/09 00:07:36;;;;;;;;;3.00;2.00;;;;;23.22;43.46;101077.78;4979900;28;45301;-45
2023/08/09 00:10:03;;;;;;;;;2.25;1.00;;;;;23.24;44.19;101075.03;4979358;28;46598;-48
2023/08/09 00:12:28;;;;;;;;;1.00;1.00;;;;;23.21;43.40;101069.94;4979392;28;45704;-44
2023/08/09 00:14:53;;;;;;;;;1.25;1.25;;;;;23.22;43.78;101071.63;4979505;28;45411;-42
2023/08/09 00:17:19;;;;;;;;;2.00;2.00;;;;;23.22;44.07;101066.34;4979210;28;48329;-44
2023/08/09 00:19:44;;;;;;;;;1.00;1.00;;;;;23.22;43.84;101066.34;4979228;28;46140;-46
2023/08/09 00:22:09;;;;;;;;;1.00;1.00;;;;;23.22;43.71;101071.63;4979546;28;45402;-47
2023/08/09 00:24:35;;;;;;;;;3.00;2.00;;;;;23.17;43.79;101072.75;4978662;28;62007;-46
2023/08/09 00:27:01;;;;;;;;;2.00;2.00;;;;;23.23;44.38;101073.31;4979404;28;45547;-43
2023/08/09 00:29:26;;;;;;;;;1.00;1.00;;;;;23.21;43.91;101075.22;4979003;28;46743;-45
2023/08/09 00:31:52;;;;;;;;;2.50;2.50;;;;;23.19;43.89;101077.97;4979191;28;45348;-46
2023/08/09 00:34:17;;;;;;;;;2.50;2.50;;;;;23.20;44.17;101077.03;4979361;28;45594;-43
2023/08/09 00:36:42;;;;;;;;;1.00;1.00;;;;;23.20;44.03;101068.25;4979412;28;45285;-43
2023/08/09 00:39:08;;;;;;;;;2.00;2.00;;;;;23.20;44.09;101078.84;4979223;28;45341;-44
2023/08/09 00:41:33;;;;;;;;;2.00;2.00;;;;;23.20;44.11;101081.47;4978909;28;45454;-42
2023/08/09 00:43:59;;;;;;;;;2.00;2.00;;;;;23.20;44.02;101086.75;4978961;28;45567;-46
2023/08/09 00:46:24;;;;;;;;;2.50;1.75;;;;;23.20;44.33;101092.06;4979283;28;45354;-42
2023/08/09 00:48:49;;;;;;;;;1.00;1.00;;;;;23.17;43.86;101078.03;4978644;28;45584;-40
2023/08/09 00:51:15;;;;;;;;;2.00;2.00;;;;;23.17;44.25;101075.41;4978670;28;45473;-39
2023/08/09 00:53:40;;;;;;;;;3.00;2.25;;;;;23.19;44.01;101079.75;4979143;28;45731;-42
2023/08/09 00:56:06;;;;;;;;;2.00;1.00;;;;;23.18;44.56;101081.53;4978998;28;45574;-44
2023/08/09 00:58:31;;;;;;;;;2.25;2.00;;;;;23.17;44.23;101079.81;4978545;28;45391;-39
2023/08/09 01:00:56;;;;;;;;;2.00;2.00;;;;;23.16;44.09;101078.97;4978248;28;56523;-42
2023/08/09 01:03:22;;;;;;;;;1.25;1.25;;;;;23.16;43.80;101084.28;4978786;28;45358;-42
2023/08/09 01:06:01;;;;;;;;;3.25;2.00;;;;;23.17;44.08;101075.41;4978865;28;45508;-42
2023/08/09 01:08:37;;;;;;;;;2.00;2.00;;;;;23.15;44.22;101077.28;4978486;28;46463;-47
2023/08/09 01:11:09;;;;;;;;;3.00;1.00;;;;;23.15;44.35;101085.22;4978449;28;45888;-42
2023/08/09 01:13:37;;;;;;;;;3.00;2.00;;;;;23.17;44.22;101095.69;4978404;28;45266;-41
2023/08/09 01:16:03;;;;;;;;;3.75;2.00;;;;;23.16;44.17;101081.63;4978378;28;45548;-43
2023/08/09 01:18:29;;;;;;;;;1.00;1.00;;;;;23.14;44.32;101086.16;4978377;28;46425;-44
2023/08/09 01:20:55;;;;;;;;;2.00;2.00;;;;;23.14;44.37;101088.81;4977112;28;45900;-40
2023/08/09 01:23:21;;;;;;;;;1.25;1.00;;;;;23.15;44.32;101101.06;4978501;28;45451;-40
2023/08/09 01:25:46;;;;;;;;;2.25;2.00;;;;;23.15;44.50;101109.00;4978441;28;45622;-41
2023/08/09 01:28:14;;;;;;;;;2.50;2.50;;;;;23.16;44.10;101102.78;4978414;28;46333;-38
2023/08/09 01:30:39;;;;;;;;;1.50;1.50;;;;;23.13;44.44;101100.31;4978180;28;45473;-44
2023/08/09 01:33:05;;;;;;;;;2.00;2.00;;;;;23.14;44.69;101095.91;4978174;28;45245;-42
2023/08/09 01:35:40;;;;;;;;;3.00;2.00;;;;;23.15;44.59;101100.25;4978414;28;45672;-43
2023/08/09 01:38:10;;;;;;;;;1.00;1.00;;;;;23.14;44.32;101099.38;4978062;28;45495;-47
2023/08/09 01:40:38;;;;;;;;;2.50;1.00;;;;;23.14;44.39;101102.03;4976728;28;45819;-42
2023/08/09 01:43:04;;;;;;;;;4.00;1.25;;;;;23.14;44.56;101095.91;4978124;28;45443;-42
2023/08/09 01:45:30;;;;;;;;;3.00;2.00;;;;;23.15;44.20;101098.44;4978115;28;45571;-46
2023/08/09 01:47:55;;;;;;;;;2.00;2.00;;;;;23.13;44.46;101102.97;4977714;28;46102;-48
2023/08/09 01:50:23;;;;;;;;;1.00;1.00;;;;;23.14;44.38;101101.19;4977827;28;45409;-46
2023/08/09 01:52:48;;;;;;;;;3.00;2.00;;;;;23.14;44.45;101099.38;4978155;28;45596;-47
2023/08/09 01:55:19;;;;;;;;;2.00;2.00;;;;;23.14;44.51;101098.53;4978428;28;45533;-45
2023/08/09 01:57:46;;;;;;;;;3.25;1.00;;;;;23.13;44.60;101100.31;4978151;28;45722;-47
2023/08/09 02:00:15;;;;;;;;;2.50;1.00;;;;;23.13;44.96;101100.31;4976451;28;45629;-43
2023/08/09 02:02:41;;;;;;;;;0.25;0.00;;;;;23.13;44.56;101102.13;4977909;28;45320;-43
2023/08/09 02:05:07;;;;;;;;;1.50;1.00;;;;;23.13;44.30;101105.59;4976648;28;45377;-48
2023/08/09 02:07:32;;;;;;;;;2.00;1.00;;;;;23.12;44.67;101109.19;4977388;28;46563;-45
2023/08/09 02:09:57;;;;;;;;;1.00;1.00;;;;;23.12;44.74;101111.84;4977367;28;54504;-44
2023/08/09 02:12:23;;;;;;;;;4.00;2.00;;;;;23.13;44.89;101112.69;4977259;28;58627;-43
2023/08/09 02:14:48;;;;;;;;;4.50;2.00;;;;;23.12;44.99;101105.72;4978009;28;45443;-41
2023/08/09 02:17:13;;;;;;;;;1.75;1.75;;;;;23.12;45.11;101106.53;4975938;28;67153;-44
2023/08/09 02:19:38;;;;;;;;;1.75;1.75;;;;;23.12;44.55;101100.41;4977246;28;53696;-45
2023/08/09 02:22:04;;;;;;;;;2.00;2.00;;;;;23.12;45.07;101103.06;4977200;28;50432;-46
2023/08/09 02:24:29;;;;;;;;;2.00;1.75;;;;;23.11;44.96;101104.84;4977337;28;46042;-47
2023/08/09 02:26:54;;;;;;;;;2.25;1.00;;;;;23.13;44.82;101104.78;4976494;28;45386;-43
2023/08/09 02:29:20;;;;;;;;;2.00;2.00;;;;;23.12;45.03;101101.25;4977330;28;45271;-40
2023/08/09 02:31:46;;;;;;;;;2.25;1.25;;;;;23.12;44.85;101103.91;4975944;28;55627;-43
2023/08/09 02:34:11;;;;;;;;;1.00;1.00;;;;;23.10;45.62;101095.22;4977562;28;45595;-47
2023/08/09 02:36:37;;;;;;;;;2.00;2.00;;;;;23.11;45.29;101096.91;4977059;28;46399;-43
2023/08/09 02:39:04;;;;;;;;;2.00;2.00;;;;;23.11;45.63;101096.91;4977110;28;45286;-41
2023/08/09 02:41:30;;;;;;;;;2.00;1.00;;;;;23.10;45.12;101097.03;4977285;28;45419;-44
2023/08/09 02:43:55;;;;;;;;;1.50;1.50;;;;;23.09;45.46;101098.84;4977232;28;45514;-45
2023/08/09 02:46:21;;;;;;;;;1.00;1.00;;;;;23.11;45.10;101101.38;4977089;28;45472;-42
2023/08/09 02:48:46;;;;;;;;;2.00;2.00;;;;;23.11;45.43;101102.19;4977341;28;45376;-42
2023/08/09 02:51:11;;;;;;;;;3.00;1.00;;;;;23.10;45.31;101091.72;4976788;28;52546;-42
2023/08/09 02:53:56;;;;;;;;;2.25;2.25;;;;;23.11;45.72;101102.19;4976003;28;45354;-45
2023/08/09 02:56:21;;;;;;;;;3.75;2.25;;;;;23.09;45.86;101098.84;4975919;28;75465;-46
2023/08/09 02:58:47;;;;;;;;;5.00;2.00;;;;;23.11;45.65;101101.38;4977173;28;45250;-44
2023/08/09 03:01:12;;;;;;;;;2.00;1.00;;;;;23.10;45.71;101095.22;4976976;28;45327;-42
2023/08/09 03:03:37;;;;;;;;;1.00;1.00;;;;;23.10;45.79;101097.03;4977111;28;45418;-44
2023/08/09 03:06:04;;;;;;;;;1.00;1.00;;;;;23.10;45.75;101094.38;4975957;28;67426;-43
2023/08/09 03:08:31;;;;;;;;;2.50;1.50;;;;;23.10;44.97;101099.66;4976658;28;45259;-49
2023/08/09 03:10:56;;;;;;;;;2.00;2.00;;;;;23.09;46.12;101104.13;4976873;28;45242;-47
2023/08/09 03:13:22;;;;;;;;;0.75;0.75;;;;;23.09;45.93;101101.47;4977008;28;45274;-44
2023/08/09 03:15:47;;;;;;;;;1.50;1.00;;;;;23.08;46.24;101102.41;4976961;28;46213;-42
2023/08/09 03:18:13;;;;;;;;;1.00;1.00;;;;;23.08;45.87;101101.53;4976591;28;45230;-44
2023/08/09 03:20:40;;;;;;;;;2.25;1.00;;;;;23.08;45.87;101113.00;4975525;28;45458;-41
2023/08/09 03:23:07;;;;;;;;;1.00;1.00;;;;;23.09;45.84;101113.81;4975672;28;45516;-43
2023/08/09 03:25:34;;;;;;;;;2.75;1.25;;;;;23.09;46.06;101127.03;4976487;28;46367;-43
2023/08/09 03:27:59;;;;;;;;;1.00;1.00;;;;;23.07;45.98;101127.16;4976624;28;45581;-42
2023/08/09 03:30:24;;;;;;;;;1.50;1.00;;;;;23.03;45.84;101117.69;4976668;28;45493;-45
2023/08/09 03:32:50;;;;;;;;;1.00;1.00;;;;;23.07;46.21;101127.16;4976897;28;45535;-43
2023/08/09 03:35:15;;;;;;;;;1.00;1.00;;;;;23.07;46.33;101132.44;4974947;28;55281;-46
2023/08/09 03:37:40;;;;;;;;;2.25;1.00;;;;;23.06;46.06;101125.44;4977075;28;45405;-47
2023/08/09 03:40:09;;;;;;;;;1.00;1.00;;;;;23.05;46.01;101123.75;4980155;28;45213;-43
2023/08/09 03:42:34;;;;;;;;;1.75;1.00;;;;;23.06;46.05;101128.09;4980012;28;45574;-43
2023/08/09 03:44:59;;;;;;;;;1.00;1.00;;;;;23.05;46.11;101121.09;4979554;28;45401;-43
2023/08/09 03:47:25;;;;;;;;;1.25;1.00;;;;;23.07;45.96;101119.22;4979677;28;45443;-42
2023/08/09 03:49:50;;;;;;;;;2.00;1.75;;;;;23.07;46.33;101124.50;4980054;28;45366;-42
2023/08/09 03:52:15;;;;;;;;;1.00;1.00;;;;;23.06;46.25;101119.28;4979425;28;53345;-47
2023/08/09 03:54:41;;;;;;;;;0.75;0.75;;;;;23.07;46.52;101121.88;4979716;28;46113;-44
2023/08/09 03:57:06;;;;;;;;;1.25;1.25;;;;;23.06;46.60;101130.72;4979548;28;45549;-48
2023/08/09 03:59:32;;;;;;;;;3.50;2.00;;;;;23.04;46.33;101132.63;4979755;28;45335;-47
2023/08/09 04:01:57;;;;;;;;;5.00;1.75;;;;;23.07;46.39;101144.78;4979887;28;45627;-42
2023/08/09 04:04:23;;;;;;;;;2.00;1.00;;;;;23.07;46.41;101142.16;4979775;28;46400;-45
2023/08/09 04:06:49;;;;;;;;;2.00;2.00;;;;;23.06;46.56;101149.25;4979578;28;45422;-42
2023/08/09 04:09:14;;;;;;;;;3.00;1.00;;;;;23.05;46.24;101150.19;4979635;28;45480;-41
2023/08/09 04:11:39;;;;;;;;;1.00;1.00;;;;;23.06;46.39;101154.53;4979767;28;45590;-40
2023/08/09 04:14:05;;;;;;;;;1.75;0.50;;;;;23.04;46.67;101153.75;4979410;28;45310;-44
2023/08/09 04:16:30;;;;;;;;;3.50;2.00;;;;;23.07;46.23;101160.66;4979267;28;45379;-44
2023/08/09 04:18:56;;;;;;;;;0.25;0.25;;;;;23.06;46.90;101158.94;4978967;28;57760;-40
2023/08/09 04:21:21;;;;;;;;;3.00;1.00;;;;;23.05;46.38;101163.41;4978624;28;45218;-45
2023/08/09 04:23:47;;;;;;;;;0.25;0.25;;;;;23.05;46.46;101163.41;4979262;28;46788;-43
2023/08/09 04:26:12;;;;;;;;;1.50;1.00;;;;;23.05;46.37;101163.41;4979152;28;45273;-42
2023/08/09 04:28:37;;;;;;;;;0.25;0.25;;;;;23.04;46.15;101164.34;4978676;28;55933;-42
2023/08/09 04:31:03;;;;;;;;;1.00;1.00;;;;;23.06;46.62;101165.09;4978042;28;45556;-41
2023/08/09 04:33:28;;;;;;;;;1.00;1.00;;;;;23.04;46.79;101163.50;4979046;28;46288;-42
2023/08/09 04:35:54;;;;;;;;;1.25;0.75;;;;;23.03;46.23;101167.91;4978075;28;46033;-43
2023/08/09 04:38:19;;;;;;;;;2.50;1.00;;;;;23.05;46.84;101170.47;4979167;28;45427;-42
2023/08/09 04:40:45;;;;;;;;;2.00;1.25;;;;;23.03;46.95;101165.28;4979270;28;45293;-39
2023/08/09 04:43:11;;;;;;;;;2.00;1.00;;;;;23.03;46.82;101172.38;4978903;28;45288;-44
2023/08/09 04:45:36;;;;;;;;;1.00;1.00;;;;;23.04;46.66;101177.56;4978643;28;45601;-43
2023/08/09 04:48:04;;;;;;;;;1.00;1.00;;;;;23.05;46.80;101178.41;4979098;28;45356;-41
2023/08/09 04:50:29;;;;;;;;;1.00;1.00;;;;;23.05;46.89;101187.19;4977220;28;45397;-41
2023/08/09 04:52:54;;;;;;;;;1.00;1.00;;;;;23.03;46.40;101188.25;4979054;28;46513;-42
2023/08/09 04:55:20;;;;;;;;;1.50;1.00;;;;;23.04;47.12;101179.38;4977476;28;45701;-41
2023/08/09 04:57:46;;;;;;;;;0.00;0.00;;;;;23.05;47.02;101187.19;4978928;28;45221;-45
2023/08/09 05:00:13;;;;;;;;;0.00;0.00;;;;;23.04;47.20;101200.50;4978934;28;45636;-41
2023/08/09 05:02:40;;;;;;;;;2.00;1.00;;;;;23.04;46.80;101187.28;4978529;28;47402;-42
2023/08/09 05:05:10;;;;;;;;;3.00;1.50;;;;;23.05;46.91;101189.84;4978630;28;45740;-43
2023/08/09 05:07:37;;;;;;;;;1.00;1.00;;;;;23.04;47.13;101190.78;4978659;28;45317;-41
2023/08/09 05:10:04;;;;;;;;;1.75;1.75;;;;;23.03;46.89;101183.78;4978911;28;45528;-43
2023/08/09 05:12:30;;;;;;;;;1.50;1.00;;;;;23.04;46.70;101182.84;4978376;28;47268;-44
2023/08/09 05:14:57;;;;;;;;;1.25;1.00;;;;;23.04;47.36;101180.19;4978642;28;45372;-44
2023/08/09 05:17:22;;;;;;;;;1.00;1.00;;;;;23.05;47.28;101181.91;4978496;28;45431;-43
2023/08/09 05:19:48;;;;;;;;;0.75;0.50;;;;;23.05;47.22;101187.19;4978663;28;45301;-45
2023/08/09 05:22:13;;;;;;;;;1.00;1.00;;;;;23.04;47.11;101190.78;4978376;28;46291;-46
2023/08/09 05:24:39;;;;;;;;;1.25;1.00;;;;;23.04;47.63;101193.41;4977145;28;45994;-49
2023/08/09 05:27:05;;;;;;;;;1.00;1.00;;;;;23.03;47.26;101189.06;4978500;28;45323;-49
2023/08/09 05:29:30;;;;;;;;;2.75;1.00;;;;;23.04;47.20;101180.19;4977041;28;45599;-48
2023/08/09 05:31:55;;;;;;;;;2.00;1.00;;;;;23.01;47.14;101186.53;4976911;28;54512;-45
2023/08/09 05:34:21;;;;;;;;;2.00;1.00;;;;;23.02;47.29;101176.78;4977691;28;59010;-47
2023/08/09 05:36:46;;;;;;;;;1.75;0.50;;;;;23.03;47.53;101182.94;4978312;28;45183;-41
2023/08/09 05:39:14;;;;;;;;;3.00;1.00;;;;;23.03;47.05;101188.25;4977702;28;57548;-45
2023/08/09 05:41:39;;;;;;;;;0.25;0.25;;;;;23.03;47.15;101204.94;4978096;28;45411;-43
2023/08/09 05:44:05;;;;;;;;;1.00;1.00;;;;;23.04;47.40;101203.16;4977981;28;45340;-41
2023/08/09 05:46:30;;;;;;;;;1.25;1.00;;;;;23.05;47.35;101210.97;4978300;28;45463;-42
2023/08/09 05:48:56;;;;;;;;;2.00;0.75;;;;;23.05;47.32;101213.63;4978647;28;45563;-42
2023/08/09 05:51:21;;;;;;;;;1.00;1.00;;;;;23.05;47.66;101212.75;4977844;28;46291;-38
2023/08/09 05:53:46;;;;;;;;;2.00;0.25;;;;;23.05;47.31;101213.63;4977850;28;45320;-45
2023/08/09 05:56:12;;;;;;;;;0.25;0.25;;;;;23.08;47.55;101216.09;4977950;28;45258;-43
2023/08/09 05:58:38;;;;;;;;;1.00;0.25;;;;;23.08;47.95;101213.44;4978137;28;45515;-45
2023/08/09 06:01:07;;;;;;;;;0.50;0.00;;;;;23.09;47.43;101212.50;4976784;28;45403;-45
2023/08/09 06:03:33;;;;;;;;;1.00;1.00;;;;;23.10;47.88;101203.59;4977562;28;45377;-47
2023/08/09 06:06:00;;;;;;;;;1.00;1.00;;;;;23.10;47.66;101206.25;4978141;28;45404;-44
2023/08/09 06:08:26;;;;;;;;;1.00;1.00;;;;;23.11;47.48;101207.97;4977846;28;45519;-46
2023/08/09 06:10:52;;;;;;;;;1.00;1.00;;;;;23.12;47.51;101212.31;4976400;28;47021;-43
2023/08/09 06:13:17;;;;;;;;;2.00;1.00;;;;;23.14;47.64;101205.13;4977483;28;45339;-42
2023/08/09 06:15:43;;;;;;;;;0.50;0.50;;;;;23.14;47.94;101201.66;4977701;28;45480;-45
2023/08/09 06:18:08;;;;;;;;;0.75;0.50;;;;;23.15;47.59;101206.84;4977293;28;52737;-45
2023/08/09 06:20:33;;;;;;;;;0.00;0.00;;;;;23.17;47.77;101214.66;4976962;28;59935;-43
2023/08/09 06:22:58;;;;;;;;;2.25;1.00;;;;;23.15;48.21;101212.13;4977741;28;45258;-47
2023/08/09 06:25:24;;;;;;;;;2.00;0.50;;;;;23.18;47.68;101213.72;4977597;28;45284;-47
2023/08/09 06:27:50;;;;;;;;;1.00;1.00;;;;;23.19;47.58;101219.88;4977120;28;49998;-43
2023/08/09 06:30:15;;;;;;;;;1.00;1.00;;;;;23.20;47.83;101216.31;4977173;28;48511;-47
2023/08/09 06:32:41;;;;;;;;;3.00;1.00;;;;;23.21;47.89;101223.28;4975987;28;45322;-42
2023/08/09 06:35:09;;;;;;;;;0.00;0.00;;;;;23.22;48.27;101227.63;4976167;28;45263;-45
2023/08/09 06:37:34;;;;;;;;;1.75;0.75;;;;;23.24;47.58;101236.34;4977587;28;45432;-40
2023/08/09 06:40:00;;;;;;;;;0.00;0.00;;;;;23.20;48.20;101235.69;4977502;28;46172;-40
2023/08/09 06:42:25;;;;;;;;;0.00;0.00;;;;;23.23;48.38;101245.22;4976773;28;55650;-42
2023/08/09 06:44:50;;;;;;;;;1.25;1.00;;;;;23.25;48.36;101245.97;4977115;28;45388;-45
2023/08/09 06:47:16;;;;;;;;;0.75;0.75;;;;;23.27;47.96;101249.38;4959922;28;45538;-40
2023/08/09 06:49:41;;;;;;;;;0.00;0.00;;;;;23.26;47.79;101252.97;4975611;28;46642;-45
2023/08/09 06:52:06;;;;;;;;;1.25;1.25;;;;;23.26;47.92;101251.16;4976621;28;56734;-44
2023/08/09 06:54:32;;;;;;;;;1.00;1.00;;;;;23.25;48.09;101254.78;4977487;28;45318;-43
2023/08/09 06:56:57;;;;;;;;;0.00;0.00;;;;;23.25;48.43;101262.72;4977318;28;45372;-40
2023/08/09 06:59:22;;;;;;;;;1.00;1.00;;;;;23.26;48.03;101263.53;4976915;28;46479;-43
2023/08/09 07:01:48;;;;;;;;;0.00;0.00;;;;;23.26;48.54;101268.84;4976960;28;45344;-43
2023/08/09 07:04:17;;;;;;;;;0.25;0.25;;;;;23.24;48.20;101276.88;4977045;28;45262;-43
2023/08/09 07:06:44;;;;;;;;;2.00;0.00;;;;;23.25;48.45;101265.34;4975969;28;45300;-44
2023/08/09 07:09:11;;;;;;;;;0.00;0.00;;;;;23.26;48.26;101268.84;4976741;28;47674;-40
2023/08/09 07:11:36;;;;;;;;;0.75;0.75;;;;;23.25;48.23;101262.72;4976871;28;45752;-46
2023/08/09 07:14:02;;;;;;;;;1.00;1.00;;;;;23.26;48.54;101268.84;4979927;28;45499;-42
2023/08/09 07:16:27;;;;;;;;;0.25;0.25;;;;;23.27;48.16;101262.59;4980668;28;45388;-42
2023/08/09 07:18:52;;;;;;;;;0.00;0.00;;;;;23.26;48.20;101264.38;4980035;28;53474;-40
2023/08/09 07:21:18;;;;;;;;;0.00;0.00;;;;;23.26;48.28;101276.75;4980101;28;45337;-45
2023/08/09 07:23:43;;;;;;;;;0.75;0.00;;;;;23.27;48.24;101278.47;4980424;28;45893;-40
2023/08/09 07:26:08;;;;;;;;;0.25;0.25;;;;;23.26;48.54;101282.06;4979990;28;45927;-44
2023/08/09 07:28:34;;;;;;;;;0.00;0.00;;;;;23.26;48.33;101280.25;4980346;28;46310;-40
2023/08/09 07:30:59;;;;;;;;;1.00;1.00;;;;;23.26;48.19;101282.06;4979988;28;49536;-42
2023/08/09 07:33:25;;;;;;;;;1.00;0.00;;;;;23.27;48.36;101287.25;4980229;28;45438;-42
2023/08/09 07:35:50;;;;;;;;;1.75;1.00;;;;;23.28;48.44;101288.94;4980126;28;45458;-44
2023/08/09 07:38:17;;;;;;;;;0.00;0.00;;;;;23.27;48.40;101283.75;4979823;28;46612;-43
2023/08/09 07:40:42;;;;;;;;;1.25;0.50;;;;;23.28;48.67;101283.66;4979932;28;45424;-39
2023/08/09 07:43:07;;;;;;;;;1.00;1.00;;;;;23.28;48.55;101285.47;4980073;28;45230;-42
2023/08/09 07:45:33;;;;;;;;;1.00;1.00;;;;;23.28;48.09;101288.09;4980272;28;45527;-40
2023/08/09 07:47:59;;;;;;;;;1.25;1.00;;;;;23.29;48.63;101292.47;4979648;28;45358;-45
2023/08/09 07:50:25;;;;;;;;;1.00;0.00;;;;;23.27;48.14;101287.25;4979789;28;45341;-44
2023/08/09 07:52:50;;;;;;;;;1.00;1.00;;;;;23.26;48.48;101290.00;4979849;28;45673;-43
2023/08/09 07:55:16;;;;;;;;;1.00;1.00;;;;;23.28;48.57;101298.69;4978705;28;45503;-48
2023/08/09 07:57:41;;;;;;;;;0.00;0.00;;;;;23.27;48.79;101294.34;4979618;28;46549;-45
2023/08/09 08:00:12;;;;;;;;;0.00;0.00;;;;;23.29;48.78;101289.81;4978689;28;45284;-47
2023/08/09 08:02:41;;;;;;;;;1.00;1.00;;;;;23.29;48.85;101289.81;4979988;28;45460;-42
2023/08/09 08:05:07;;;;;;;;;2.00;1.00;;;;;23.28;48.36;101288.94;4980270;28;45424;-42
2023/08/09 08:07:32;;;;;;;;;1.00;0.00;;;;;23.27;48.83;101287.25;4979359;28;46041;-45
2023/08/09 08:09:58;;;;;;;;;1.25;0.75;;;;;23.28;48.38;101293.41;4979329;28;45351;-48
2023/08/09 08:12:26;;;;;;;;;2.00;1.00;;;;;23.29;48.60;101292.47;4979473;28;45363;-44
2023/08/09 08:14:52;;;;;;;;;2.00;1.00;;;;;23.30;48.36;101291.53;4978401;28;45405;-46
2023/08/09 08:17:17;;;;;;;;;0.25;0.25;;;;;23.29;48.33;101287.16;4977873;28;46965;-45
2023/08/09 08:19:43;;;;;;;;;1.00;1.00;;;;;23.30;48.73;101292.34;4979370;28;45332;-43
2023/08/09 08:22:09;;;;;;;;;0.50;0.50;;;;;23.30;48.63;101291.53;4979707;28;45448;-46
2023/08/09 08:24:34;;;;;;;;;0.50;0.50;;;;;23.30;48.99;101302.94;4978503;28;45287;-46
2023/08/09 08:26:59;;;;;;;;;1.00;1.00;;;;;23.33;48.37;101306.34;4977980;28;47117;-42
2023/08/09 08:29:25;;;;;;;;;1.00;1.00;;;;;23.32;48.66;101302.81;4978565;28;60886;-42
2023/08/09 08:31:53;;;;;;;;;2.00;0.50;;;;;23.33;48.62;101304.53;4979173;28;45345;-45
2023/08/09 08:34:21;;;;;;;;;1.50;1.00;;;;;23.33;48.77;101307.19;4979334;28;45274;-41
2023/08/09 14:08:22;;;;;;;;;3.00;2.75;;;;;23.45;47.19;101411.44;5176075;23;45511;-43
2023/08/09 14:10:47;;;;;;;;;4.00;3.00;;;;;23.46;46.75;101413.13;4976957;28;46365;-41
2023/08/09 14:13:13;;;;;;;;;5.25;3.75;;;;;23.47;46.94;101420.13;4977149;28;45334;-42
2023/08/09 14:15:38;;;;;;;;;2.00;2.00;;;;;23.45;46.82;101414.91;4977685;28;45420;-47
2023/08/09 14:18:04;;;;;;;;;3.25;3.00;;;;;23.46;47.04;101408.69;4977009;28;48654;-42
2023/08/09 14:20:29;;;;;;;;;3.00;3.00;;;;;23.49;46.68;101417.38;4977250;28;45365;-43
2023/08/09 14:22:55;;;;;;;;;4.50;3.00;;;;;23.47;46.85;101415.69;4976439;28;45364;-43
2023/08/09 14:25:25;;;;;;;;;2.00;2.00;;;;;23.51;46.98;101413.69;4943775;28;45679;-44
2023/08/09 14:27:54;;;;;;;;;3.00;3.00;;;;;23.50;47.09;101413.78;4977566;28;45453;-45
2023/08/09 14:30:20;;;;;;;;;5.25;2.50;;;;;23.51;46.95;101410.22;4976668;28;45401;-46
2023/08/09 14:32:46;;;;;;;;;5.00;2.00;;;;;23.52;46.46;101411.91;4977316;28;45909;-42
2023/08/09 14:35:11;;;;;;;;;3.50;3.50;;;;;23.51;46.46;101408.41;4977531;28;45341;-43
2023/08/09 14:37:38;;;;;;;;;4.00;3.50;;;;;23.53;46.58;101411.81;4976161;28;45564;-43
2023/08/09 14:40:07;;;;;;;;;3.25;3.25;;;;;23.51;46.44;101410.22;4975888;28;45889;-43
2023/08/09 14:42:36;;;;;;;;;3.00;3.00;;;;;23.52;46.83;101403.97;4976766;28;45193;-46
2023/08/09 14:45:03;;;;;;;;;2.50;2.50;;;;;23.50;46.51;101405.84;4977220;28;45550;-45
2023/08/09 14:47:29;;;;;;;;;3.00;3.00;;;;;23.48;46.94;101405.97;4977415;28;45178;-51
2023/08/09 14:49:54;;;;;;;;;3.00;3.00;;;;;23.51;46.85;101399.63;4976699;28;45352;-50
2023/08/09 14:52:21;;;;;;;;;3.00;3.00;;;;;23.55;46.57;101398.47;4976782;28;45316;-47
2023/08/09 14:54:47;;;;;;;;;4.00;2.25;;;;;23.53;46.51;101403.03;4976972;28;45189;-45
2023/08/09 14:57:12;;;;;;;;;5.25;4.00;;;;;23.55;46.88;101401.13;4977020;28;45634;-45
2023/08/09 14:59:37;;;;;;;;;4.00;4.00;;;;;23.53;46.49;101403.88;4976627;28;46074;-45
2023/08/09 15:02:03;;;;;;;;;3.50;2.75;;;;;23.54;47.13;101402.06;4976587;28;45522;-44
2023/08/09 15:04:28;;;;;;;;;2.00;2.00;;;;;23.55;46.97;101406.41;4977122;28;45431;-42
2023/08/09 15:06:53;;;;;;;;;5.75;3.25;;;;;23.55;46.62;101396.72;4980351;28;45428;-43
2023/08/09 15:09:20;;;;;;;;;3.00;3.00;;;;;23.53;46.95;101398.59;4995929;28;46528;-42
2023/08/09 15:11:46;;;;;;;;;3.00;3.00;;;;;23.56;47.21;101402.84;4978706;28;45740;-42
2023/08/09 15:14:11;;;;;;;;;3.25;3.00;;;;;23.56;46.81;101400.19;4996440;28;45344;-43
2023/08/09 15:16:37;;;;;;;;;6.25;5.00;;;;;23.56;46.81;101402.84;4996352;28;47824;-42
2023/08/09 15:19:03;;;;;;;;;3.75;3.00;;;;;23.55;46.65;101394.06;4996214;28;46593;-47
2023/08/09 15:21:28;;;;;;;;;3.00;3.00;;;;;23.54;46.65;101399.44;4996772;28;45290;-44
2023/08/09 15:23:53;;;;;;;;;3.75;3.00;;;;;23.54;47.00;101394.13;4996284;28;45317;-46
2023/08/09 15:26:19;;;;;;;;;3.00;2.75;;;;;23.56;46.58;101394.91;4996107;28;49099;-41
2023/08/09 15:28:45;;;;;;;;;2.50;2.00;;;;;23.56;47.13;101394.91;4996171;28;45488;-43
2023/08/09 15:31:11;;;;;;;;;3.00;3.00;;;;;23.55;47.01;101385.25;4996337;28;45750;-43
2023/08/09 15:33:36;;;;;;;;;3.00;3.00;;;;;23.54;46.63;101388.84;4996868;28;45247;-46
2023/08/09 15:36:02;;;;;;;;;0.00;0.00;;;;;23.55;47.14;101394.06;4999943;28;51157;-46
2023/08/09 15:38:28;;;;;;;;;3.00;3.00;;;;;23.54;47.14;101386.19;5000058;28;45481;-46
2023/08/09 15:40:53;;;;;;;;;4.00;1.50;;;;;23.54;46.74;101388.84;4999654;28;45437;-43
2023/08/09 15:43:18;;;;;;;;;3.00;3.00;;;;;23.51;46.54;101389.03;4999689;28;45419;-47
2023/08/09 15:45:43;;;;;;;;;3.25;3.25;;;;;23.53;46.91;101395.09;4999477;28;45246;-43
2023/08/09 15:48:09;;;;;;;;;3.00;3.00;;;;;23.53;46.78;101401.22;4999330;28;47947;-44
2023/08/09 15:50:36;;;;;;;;;3.00;3.00;;;;;23.53;46.70;101397.75;4999326;28;45334;-46
2023/08/09 15:53:02;;;;;;;;;5.50;3.50;;;;;23.53;47.00;101401.22;4999785;28;45349;-48
2023/08/09 15:55:29;;;;;;;;;3.00;3.00;;;;;23.53;46.88;101406.53;4999764;28;45440;-46
2023/08/09 15:57:54;;;;;;;;;2.25;2.25;;;;;23.51;46.92;101402.28;4999147;28;46357;-44
2023/08/09 16:00:20;;;;;;;;;6.00;4.00;;;;;23.52;46.95;101407.47;4999319;28;45314;-44
2023/08/09 16:02:45;;;;;;;;;4.00;4.00;;;;;23.52;46.41;101403.97;4999064;28;52296;-45
2023/08/09 16:05:12;;;;;;;;;2.25;2.25;;;;;23.52;46.73;101404.81;4999721;28;45595;-46
2023/08/09 16:07:38;;;;;;;;;3.00;3.00;;;;;23.52;46.59;101396.03;4998925;28;46435;-46
2023/08/09 16:10:04;;;;;;;;;4.00;4.00;;;;;23.53;46.72;101398.59;4999378;28;45340;-47
2023/08/09 16:12:31;;;;;;;;;2.50;2.25;;;;;23.51;46.52;101394.34;4965486;28;45329;-42
2023/08/09 16:14:56;;;;;;;;;5.75;3.00;;;;;23.52;46.88;101391.59;4999332;28;45301;-43
2023/08/09 16:17:22;;;;;;;;;3.00;3.00;;;;;23.51;46.45;101389.88;4998952;28;45449;-50
2023/08/09 16:19:48;;;;;;;;;2.00;2.00;;;;;23.53;46.21;101392.47;4999158;28;45241;-46
2023/08/09 16:22:13;;;;;;;;;3.25;3.25;;;;;23.53;46.44;101389.81;4999213;28;45329;-44
2023/08/09 16:24:39;;;;;;;;;3.00;3.00;;;;;23.52;46.73;101380.16;4999277;28;45514;-46
2023/08/09 16:27:04;;;;;;;;;2.50;2.50;;;;;23.51;46.31;101395.19;4999165;28;46261;-45
2023/08/09 16:29:30;;;;;;;;;4.00;4.00;;;;;23.51;46.54;101386.41;4998715;28;45333;-39
2023/08/09 16:31:55;;;;;;;;;4.75;3.75;;;;;23.52;46.71;101380.16;4998924;28;45353;-39
2023/08/09 16:34:20;;;;;;;;;2.00;2.00;;;;;23.52;46.69;101385.47;4999005;28;45208;-45
2023/08/09 16:36:46;;;;;;;;;2.25;2.25;;;;;23.52;46.33;101385.47;4998828;28;46086;-47
2023/08/09 16:39:11;;;;;;;;;2.75;2.25;;;;;23.50;46.77;101372.31;4998822;28;45337;-48
2023/08/09 16:41:36;;;;;;;;;2.00;2.00;;;;;23.51;46.53;101389.88;4998848;28;45262;-44
2023/08/09 16:44:02;;;;;;;;;2.75;2.75;;;;;23.51;46.40;101378.47;4999224;28;45342;-48
2023/08/09 16:46:27;;;;;;;;;3.25;3.00;;;;;23.50;46.33;101388.19;4997620;28;46083;-47
2023/08/09 16:48:53;;;;;;;;;2.00;2.00;;;;;23.51;46.66;101389.03;4998067;28;55638;-47